sensor_id;sensor_type;location;lat;lon;timestamp;temperature;humidity
21403;DHT22;10862;51.886;17.078;2024-01-30T00:01:42;2.50;1.00
21403;DHT22;10862;51.886;17.078;2024-01-30T00:04:07;2.50;1.00
21403;DHT22;10862;51.886;17.078;2024-01-30T00:06:33;2.50;1.00
21403;DHT22;10862;51.886;17.078;2024-01-30T00:08:58;2.50;1.00
21403;DHT22;10862;51.886;17.078;2024-01-30T00:11:24;2.50;1.00
21403;DHT22;10862;51.886;17.078;2024-01-30T00:13:54;2.40;1.00
21403;DHT22;10862;51.886;17.078;2024-01-30T00:16:22;2.50;1.00
21403;DHT22;10862;51.886;17.078;2024-01-30T00:18:50;2.50;1.00
21403;DHT22;10862;51.886;17.078;2024-01-30T00:21:15;2.50;99.90
21403;DHT22;10862;51.886;17.078;2024-01-30T00:23:41;2.50;99.90
21403;DHT22;10862;51.886;17.078;2024-01-30T00:26:06;2.50;99.90
21403;DHT22;10862;51.886;17.078;2024-01-30T00:28:32;2.50;99.90
21403;DHT22;10862;51.886;17.078;2024-01-30T00:30:58;2.50;1.00
21403;DHT22;10862;51.886;17.078;2024-01-30T00:33:23;2.60;1.00
21403;DHT22;10862;51.886;17.078;2024-01-30T00:35:49;2.50;1.00
21403;DHT22;10862;51.886;17.078;2024-01-30T00:38:14;2.40;1.00
21403;DHT22;10862;51.886;17.078;2024-01-30T00:40:40;2.40;1.00
21403;DHT22;10862;51.886;17.078;2024-01-30T00:43:06;2.40;88.00
21403;DHT22;10862;51.886;17.078;2024-01-30T00:45:32;2.40;91.00
21403;DHT22;10862;51.886;17.078;2024-01-30T00:47:57;2.50;99.20
21403;DHT22;10862;51.886;17.078;2024-01-30T00:50:23;2.40;99.90
21403;DHT22;10862;51.886;17.078;2024-01-30T00:52:48;2.50;99.50
21403;DHT22;10862;51.886;17.078;2024-01-30T00:55:14;2.60;1.00
21403;DHT22;10862;51.886;17.078;2024-01-30T00:57:40;2.70;99.90
21403;DHT22;10862;51.886;17.078;2024-01-30T01:00:06;2.50;99.90
21403;DHT22;10862;51.886;17.078;2024-01-30T01:02:35;2.30;1.00
21403;DHT22;10862;51.886;17.078;2024-01-30T01:05:01;2.10;1.00
21403;DHT22;10862;51.886;17.078;2024-01-30T01:07:26;2.10;95.70
21403;DHT22;10862;51.886;17.078;2024-01-30T01:09:52;2.10;99.90
21403;DHT22;10862;51.886;17.078;2024-01-30T01:12:18;2.10;1.00
21403;DHT22;10862;51.886;17.078;2024-01-30T01:14:43;2.10;1.00
21403;DHT22;10862;51.886;17.078;2024-01-30T01:17:09;2.10;1.00
21403;DHT22;10862;51.886;17.078;2024-01-30T01:19:35;2.00;1.00
21403;DHT22;10862;51.886;17.078;2024-01-30T01:22:00;2.00;1.00
21403;DHT22;10862;51.886;17.078;2024-01-30T01:24:26;2.10;1.00
21403;DHT22;10862;51.886;17.078;2024-01-30T01:26:51;2.10;1.00
21403;DHT22;10862;51.886;17.078;2024-01-30T01:29:17;2.10;1.00
21403;DHT22;10862;51.886;17.078;2024-01-30T01:31:43;2.10;1.00
21403;DHT22;10862;51.886;17.078;2024-01-30T01:34:12;2.10;99.90
21403;DHT22;10862;51.886;17.078;2024-01-30T01:36:38;2.10;99.90
21403;DHT22;10862;51.886;17.078;2024-01-30T01:39:04;2.10;1.00
21403;DHT22;10862;51.886;17.078;2024-01-30T01:41:31;2.40;99.90
21403;DHT22;10862;51.886;17.078;2024-01-30T01:43:57;2.40;99.90
21403;DHT22;10862;51.886;17.078;2024-01-30T01:46:23;2.40;1.00
21403;DHT22;10862;51.886;17.078;2024-01-30T01:48:49;2.20;1.00
21403;DHT22;10862;51.886;17.078;2024-01-30T01:51:15;2.20;99.90
21403;DHT22;10862;51.886;17.078;2024-01-30T01:53:41;2.20;1.00
21403;DHT22;10862;51.886;17.078;2024-01-30T01:56:07;2.10;99.90
21403;DHT22;10862;51.886;17.078;2024-01-30T01:58:33;2.20;1.00
21403;DHT22;10862;51.886;17.078;2024-01-30T02:00:59;2.20;1.00
21403;DHT22;10862;51.886;17.078;2024-01-30T02:03:25;2.20;1.00
21403;DHT22;10862;51.886;17.078;2024-01-30T02:05:51;2.20;1.00
21403;DHT22;10862;51.886;17.078;2024-01-30T02:08:17;2.20;1.00
21403;DHT22;10862;51.886;17.078;2024-01-30T02:10:42;2.10;1.00
21403;DHT22;10862;51.886;17.078;2024-01-30T02:13:08;2.10;1.00
21403;DHT22;10862;51.886;17.078;2024-01-30T02:15:33;2.10;20.10
21403;DHT22;10862;51.886;17.078;2024-01-30T02:17:59;2.00;99.90
21403;DHT22;10862;51.886;17.078;2024-01-30T02:20:25;2.00;99.90
21403;DHT22;10862;51.886;17.078;2024-01-30T02:22:54;2.10;99.90
21403;DHT22;10862;51.886;17.078;2024-01-30T02:25:33;2.10;88.00
21403;DHT22;10862;51.886;17.078;2024-01-30T02:27:59;2.00;99.90
21403;DHT22;10862;51.886;17.078;2024-01-30T02:30:24;2.10;96.60
21403;DHT22;10862;51.886;17.078;2024-01-30T02:32:50;2.20;1.00
21403;DHT22;10862;51.886;17.078;2024-01-30T02:35:15;2.10;1.00
21403;DHT22;10862;51.886;17.078;2024-01-30T02:37:41;2.10;1.00
21403;DHT22;10862;51.886;17.078;2024-01-30T02:40:07;2.20;1.00
21403;DHT22;10862;51.886;17.078;2024-01-30T02:42:32;2.20;99.90
21403;DHT22;10862;51.886;17.078;2024-01-30T02:44:58;2.10;99.90
21403;DHT22;10862;51.886;17.078;2024-01-30T02:47:24;2.10;1.00
21403;DHT22;10862;51.886;17.078;2024-01-30T02:49:49;2.00;99.90
21403;DHT22;10862;51.886;17.078;2024-01-30T02:52:15;2.00;1.00
21403;DHT22;10862;51.886;17.078;2024-01-30T02:54:40;2.10;99.90
21403;DHT22;10862;51.886;17.078;2024-01-30T02:57:06;2.10;1.00
21403;DHT22;10862;51.886;17.078;2024-01-30T02:59:32;2.00;1.00
21403;DHT22;10862;51.886;17.078;2024-01-30T03:02:01;1.90;99.90
21403;DHT22;10862;51.886;17.078;2024-01-30T03:04:26;1.80;1.00
21403;DHT22;10862;51.886;17.078;2024-01-30T03:06:52;1.80;99.90
21403;DHT22;10862;51.886;17.078;2024-01-30T03:09:18;2.00;1.00
21403;DHT22;10862;51.886;17.078;2024-01-30T03:11:44;1.90;1.00
21403;DHT22;10862;51.886;17.078;2024-01-30T03:14:09;1.90;99.90
21403;DHT22;10862;51.886;17.078;2024-01-30T03:16:38;1.90;99.90
21403;DHT22;10862;51.886;17.078;2024-01-30T03:19:05;2.00;27.30
21403;DHT22;10862;51.886;17.078;2024-01-30T03:21:35;2.00;1.00
21403;DHT22;10862;51.886;17.078;2024-01-30T03:24:00;1.90;1.00
21403;DHT22;10862;51.886;17.078;2024-01-30T03:26:26;1.90;99.90
21403;DHT22;10862;51.886;17.078;2024-01-30T03:28:52;1.80;1.00
21403;DHT22;10862;51.886;17.078;2024-01-30T03:31:17;1.70;54.20
21403;DHT22;10862;51.886;17.078;2024-01-30T03:33:43;1.70;1.00
21403;DHT22;10862;51.886;17.078;2024-01-30T03:36:09;1.80;1.00
21403;DHT22;10862;51.886;17.078;2024-01-30T03:38:35;1.60;1.00
21403;DHT22;10862;51.886;17.078;2024-01-30T03:41:01;1.70;1.00
21403;DHT22;10862;51.886;17.078;2024-01-30T03:43:27;1.70;99.90
21403;DHT22;10862;51.886;17.078;2024-01-30T03:45:52;1.70;99.90
21403;DHT22;10862;51.886;17.078;2024-01-30T03:48:19;1.70;99.90
21403;DHT22;10862;51.886;17.078;2024-01-30T03:50:45;1.60;99.90
21403;DHT22;10862;51.886;17.078;2024-01-30T03:53:10;1.70;1.00
21403;DHT22;10862;51.886;17.078;2024-01-30T03:55:36;1.70;99.90
21403;DHT22;10862;51.886;17.078;2024-01-30T03:58:02;1.70;99.90
21403;DHT22;10862;51.886;17.078;2024-01-30T04:00:27;1.60;1.00
21403;DHT22;10862;51.886;17.078;2024-01-30T04:02:53;1.60;1.00
21403;DHT22;10862;51.886;17.078;2024-01-30T04:05:19;1.60;1.00
21403;DHT22;10862;51.886;17.078;2024-01-30T04:07:44;1.60;99.90
21403;DHT22;10862;51.886;17.078;2024-01-30T04:10:10;1.60;99.90
21403;DHT22;10862;51.886;17.078;2024-01-30T04:12:36;1.60;99.90
21403;DHT22;10862;51.886;17.078;2024-01-30T04:15:02;1.60;99.90
21403;DHT22;10862;51.886;17.078;2024-01-30T04:17:28;1.70;4.00
21403;DHT22;10862;51.886;17.078;2024-01-30T04:19:54;1.70;49.50
21403;DHT22;10862;51.886;17.078;2024-01-30T04:22:20;1.60;85.70
21403;DHT22;10862;51.886;17.078;2024-01-30T04:24:46;1.60;99.80
21403;DHT22;10862;51.886;17.078;2024-01-30T04:27:12;1.60;99.90
21403;DHT22;10862;51.886;17.078;2024-01-30T04:29:37;1.70;48.30
21403;DHT22;10862;51.886;17.078;2024-01-30T04:32:03;1.70;1.00
21403;DHT22;10862;51.886;17.078;2024-01-30T04:34:29;1.70;1.00
21403;DHT22;10862;51.886;17.078;2024-01-30T04:36:55;1.80;1.00
21403;DHT22;10862;51.886;17.078;2024-01-30T04:39:20;1.80;99.90
21403;DHT22;10862;51.886;17.078;2024-01-30T04:41:46;1.80;99.90
21403;DHT22;10862;51.886;17.078;2024-01-30T04:44:11;1.80;99.90
21403;DHT22;10862;51.886;17.078;2024-01-30T04:46:37;1.80;99.90
21403;DHT22;10862;51.886;17.078;2024-01-30T04:49:03;2.00;1.00
21403;DHT22;10862;51.886;17.078;2024-01-30T04:51:29;2.10;1.00
21403;DHT22;10862;51.886;17.078;2024-01-30T04:53:55;2.20;99.90
21403;DHT22;10862;51.886;17.078;2024-01-30T04:56:21;2.00;99.90
21403;DHT22;10862;51.886;17.078;2024-01-30T04:58:46;2.00;1.00
21403;DHT22;10862;51.886;17.078;2024-01-30T05:01:18;1.90;90.30
21403;DHT22;10862;51.886;17.078;2024-01-30T05:03:44;1.90;1.00
21403;DHT22;10862;51.886;17.078;2024-01-30T05:06:10;1.90;1.00
21403;DHT22;10862;51.886;17.078;2024-01-30T05:08:36;1.90;99.90
21403;DHT22;10862;51.886;17.078;2024-01-30T05:11:05;1.80;99.90
21403;DHT22;10862;51.886;17.078;2024-01-30T05:13:31;1.90;1.00
21403;DHT22;10862;51.886;17.078;2024-01-30T05:15:57;1.90;99.90
21403;DHT22;10862;51.886;17.078;2024-01-30T05:18:22;1.90;99.90
21403;DHT22;10862;51.886;17.078;2024-01-30T05:20:50;1.90;99.90
21403;DHT22;10862;51.886;17.078;2024-01-30T05:23:15;2.00;1.00
21403;DHT22;10862;51.886;17.078;2024-01-30T05:25:41;2.00;1.00
21403;DHT22;10862;51.886;17.078;2024-01-30T05:28:06;2.10;99.90
21403;DHT22;10862;51.886;17.078;2024-01-30T05:30:32;2.10;99.90
21403;DHT22;10862;51.886;17.078;2024-01-30T05:32:58;2.10;1.00
21403;DHT22;10862;51.886;17.078;2024-01-30T05:35:23;2.10;1.00
21403;DHT22;10862;51.886;17.078;2024-01-30T05:37:49;2.20;1.00
21403;DHT22;10862;51.886;17.078;2024-01-30T05:40:15;2.20;99.90
21403;DHT22;10862;51.886;17.078;2024-01-30T05:42:41;2.10;1.00
21403;DHT22;10862;51.886;17.078;2024-01-30T05:45:07;2.20;99.90
21403;DHT22;10862;51.886;17.078;2024-01-30T05:47:34;2.10;1.00
21403;DHT22;10862;51.886;17.078;2024-01-30T05:49:59;2.10;1.00
21403;DHT22;10862;51.886;17.078;2024-01-30T05:52:25;2.10;1.00
21403;DHT22;10862;51.886;17.078;2024-01-30T05:54:50;2.10;99.90
21403;DHT22;10862;51.886;17.078;2024-01-30T05:57:16;2.00;99.90
21403;DHT22;10862;51.886;17.078;2024-01-30T05:59:43;2.00;31.40
21403;DHT22;10862;51.886;17.078;2024-01-30T06:02:10;2.00;1.00
21403;DHT22;10862;51.886;17.078;2024-01-30T06:04:36;2.00;1.00
21403;DHT22;10862;51.886;17.078;2024-01-30T06:07:02;2.00;1.00
21403;DHT22;10862;51.886;17.078;2024-01-30T06:09:28;1.90;67.20
21403;DHT22;10862;51.886;17.078;2024-01-30T06:11:54;1.90;98.50
21403;DHT22;10862;51.886;17.078;2024-01-30T06:14:20;1.80;99.90
21403;DHT22;10862;51.886;17.078;2024-01-30T06:16:46;1.80;1.00
21403;DHT22;10862;51.886;17.078;2024-01-30T06:19:11;1.70;1.00
21403;DHT22;10862;51.886;17.078;2024-01-30T06:21:37;1.70;1.00
21403;DHT22;10862;51.886;17.078;2024-01-30T06:24:04;1.70;99.90
21403;DHT22;10862;51.886;17.078;2024-01-30T06:26:29;1.80;99.90
21403;DHT22;10862;51.886;17.078;2024-01-30T06:28:55;1.70;99.90
21403;DHT22;10862;51.886;17.078;2024-01-30T06:31:20;1.60;1.00
21403;DHT22;10862;51.886;17.078;2024-01-30T06:33:47;1.60;1.00
21403;DHT22;10862;51.886;17.078;2024-01-30T06:36:13;1.60;1.00
21403;DHT22;10862;51.886;17.078;2024-01-30T06:38:38;1.70;1.00
21403;DHT22;10862;51.886;17.078;2024-01-30T06:41:04;1.70;99.90
21403;DHT22;10862;51.886;17.078;2024-01-30T06:43:30;1.70;99.90
21403;DHT22;10862;51.886;17.078;2024-01-30T06:45:55;1.70;99.90
21403;DHT22;10862;51.886;17.078;2024-01-30T06:48:21;1.70;99.90
21403;DHT22;10862;51.886;17.078;2024-01-30T06:50:46;1.70;48.00
21403;DHT22;10862;51.886;17.078;2024-01-30T06:53:13;1.70;99.90
21403;DHT22;10862;51.886;17.078;2024-01-30T06:55:39;1.80;92.10
21403;DHT22;10862;51.886;17.078;2024-01-30T06:58:04;1.80;1.00
21403;DHT22;10862;51.886;17.078;2024-01-30T07:00:30;1.80;1.00
21403;DHT22;10862;51.886;17.078;2024-01-30T07:02:56;2.00;1.00
21403;DHT22;10862;51.886;17.078;2024-01-30T07:05:21;1.90;1.00
21403;DHT22;10862;51.886;17.078;2024-01-30T07:07:47;1.90;99.90
21403;DHT22;10862;51.886;17.078;2024-01-30T07:10:13;2.00;99.90
21403;DHT22;10862;51.886;17.078;2024-01-30T07:12:38;2.00;99.90
21403;DHT22;10862;51.886;17.078;2024-01-30T07:15:05;2.00;99.90
21403;DHT22;10862;51.886;17.078;2024-01-30T07:17:33;2.00;99.90
21403;DHT22;10862;51.886;17.078;2024-01-30T07:19:59;2.00;1.00
21403;DHT22;10862;51.886;17.078;2024-01-30T07:22:25;2.10;1.00
21403;DHT22;10862;51.886;17.078;2024-01-30T07:24:50;2.20;1.00
21403;DHT22;10862;51.886;17.078;2024-01-30T07:27:17;2.10;99.90
21403;DHT22;10862;51.886;17.078;2024-01-30T07:29:43;2.20;99.90
21403;DHT22;10862;51.886;17.078;2024-01-30T07:32:09;2.20;1.00
21403;DHT22;10862;51.886;17.078;2024-01-30T07:34:35;2.30;1.00
21403;DHT22;10862;51.886;17.078;2024-01-30T07:37:01;2.40;99.90
21403;DHT22;10862;51.886;17.078;2024-01-30T07:39:28;2.40;99.90
21403;DHT22;10862;51.886;17.078;2024-01-30T07:41:53;2.40;99.90
21403;DHT22;10862;51.886;17.078;2024-01-30T07:44:20;2.40;99.90
21403;DHT22;10862;51.886;17.078;2024-01-30T07:46:45;2.40;99.90
21403;DHT22;10862;51.886;17.078;2024-01-30T07:49:11;2.50;99.90
21403;DHT22;10862;51.886;17.078;2024-01-30T07:51:36;2.60;99.90
21403;DHT22;10862;51.886;17.078;2024-01-30T07:54:02;2.60;99.00
21403;DHT22;10862;51.886;17.078;2024-01-30T07:56:28;2.70;10.40
21403;DHT22;10862;51.886;17.078;2024-01-30T07:58:53;2.80;1.00
21403;DHT22;10862;51.886;17.078;2024-01-30T08:01:19;2.90;1.00
21403;DHT22;10862;51.886;17.078;2024-01-30T08:03:45;3.00;99.90
21403;DHT22;10862;51.886;17.078;2024-01-30T08:06:10;3.10;99.90
21403;DHT22;10862;51.886;17.078;2024-01-30T08:08:36;3.40;99.90
21403;DHT22;10862;51.886;17.078;2024-01-30T08:11:03;3.60;1.00
21403;DHT22;10862;51.886;17.078;2024-01-30T08:13:29;3.90;99.90
21403;DHT22;10862;51.886;17.078;2024-01-30T08:15:54;4.30;24.20
21403;DHT22;10862;51.886;17.078;2024-01-30T08:18:20;4.60;99.90
21403;DHT22;10862;51.886;17.078;2024-01-30T08:20:45;5.00;21.60
21403;DHT22;10862;51.886;17.078;2024-01-30T08:23:11;5.10;1.00
21403;DHT22;10862;51.886;17.078;2024-01-30T08:25:37;5.20;1.00
21403;DHT22;10862;51.886;17.078;2024-01-30T08:28:03;5.30;1.00
21403;DHT22;10862;51.886;17.078;2024-01-30T08:30:29;5.20;1.00
21403;DHT22;10862;51.886;17.078;2024-01-30T08:32:55;5.10;1.00
21403;DHT22;10862;51.886;17.078;2024-01-30T08:35:20;5.60;1.00
21403;DHT22;10862;51.886;17.078;2024-01-30T08:37:46;5.90;99.90
21403;DHT22;10862;51.886;17.078;2024-01-30T08:40:11;5.90;99.90
21403;DHT22;10862;51.886;17.078;2024-01-30T08:42:37;5.90;99.90
21403;DHT22;10862;51.886;17.078;2024-01-30T08:45:03;6.20;99.90
21403;DHT22;10862;51.886;17.078;2024-01-30T08:47:30;5.90;99.90
21403;DHT22;10862;51.886;17.078;2024-01-30T08:49:56;5.30;99.90
21403;DHT22;10862;51.886;17.078;2024-01-30T08:52:22;5.60;99.90
21403;DHT22;10862;51.886;17.078;2024-01-30T08:54:47;5.90;99.90
21403;DHT22;10862;51.886;17.078;2024-01-30T08:57:13;6.30;99.90
21403;DHT22;10862;51.886;17.078;2024-01-30T08:59:38;7.10;1.00
21403;DHT22;10862;51.886;17.078;2024-01-30T09:02:05;7.80;1.00
21403;DHT22;10862;51.886;17.078;2024-01-30T09:04:30;8.00;1.00
21403;DHT22;10862;51.886;17.078;2024-01-30T09:06:56;8.50;1.00
21403;DHT22;10862;51.886;17.078;2024-01-30T09:09:21;8.70;1.00
21403;DHT22;10862;51.886;17.078;2024-01-30T09:11:47;8.80;1.00
21403;DHT22;10862;51.886;17.078;2024-01-30T09:14:13;9.30;1.00
21403;DHT22;10862;51.886;17.078;2024-01-30T09:16:38;9.00;1.00
21403;DHT22;10862;51.886;17.078;2024-01-30T09:19:04;9.80;1.00
21403;DHT22;10862;51.886;17.078;2024-01-30T09:21:30;10.10;1.00
21403;DHT22;10862;51.886;17.078;2024-01-30T09:24:02;9.10;99.90
21403;DHT22;10862;51.886;17.078;2024-01-30T09:26:29;8.90;1.00
21403;DHT22;10862;51.886;17.078;2024-01-30T09:28:54;9.50;99.90
21403;DHT22;10862;51.886;17.078;2024-01-30T09:31:20;9.70;99.90
21403;DHT22;10862;51.886;17.078;2024-01-30T09:33:45;9.70;99.90
21403;DHT22;10862;51.886;17.078;2024-01-30T09:36:13;9.00;99.90
21403;DHT22;10862;51.886;17.078;2024-01-30T09:38:41;9.00;99.90
21403;DHT22;10862;51.886;17.078;2024-01-30T09:41:09;9.20;99.90
21403;DHT22;10862;51.886;17.078;2024-01-30T09:43:38;9.20;99.90
21403;DHT22;10862;51.886;17.078;2024-01-30T09:46:05;9.50;99.90
21403;DHT22;10862;51.886;17.078;2024-01-30T09:48:32;9.70;99.90
21403;DHT22;10862;51.886;17.078;2024-01-30T09:50:59;9.70;99.90
21403;DHT22;10862;51.886;17.078;2024-01-30T09:53:25;9.40;99.90
21403;DHT22;10862;51.886;17.078;2024-01-30T09:55:51;9.10;99.90
21403;DHT22;10862;51.886;17.078;2024-01-30T09:58:16;9.40;99.90
21403;DHT22;10862;51.886;17.078;2024-01-30T10:00:42;9.60;99.90
21403;DHT22;10862;51.886;17.078;2024-01-30T10:03:08;9.60;99.90
21403;DHT22;10862;51.886;17.078;2024-01-30T10:05:36;10.10;99.90
21403;DHT22;10862;51.886;17.078;2024-01-30T10:08:06;9.90;99.90
21403;DHT22;10862;51.886;17.078;2024-01-30T10:10:33;10.00;99.90
21403;DHT22;10862;51.886;17.078;2024-01-30T10:12:59;10.70;99.90
21403;DHT22;10862;51.886;17.078;2024-01-30T10:15:25;10.40;99.90
21403;DHT22;10862;51.886;17.078;2024-01-30T10:17:52;11.30;99.90
21403;DHT22;10862;51.886;17.078;2024-01-30T10:20:18;11.40;99.90
21403;DHT22;10862;51.886;17.078;2024-01-30T10:22:44;10.40;99.90
21403;DHT22;10862;51.886;17.078;2024-01-30T10:25:11;9.80;99.90
21403;DHT22;10862;51.886;17.078;2024-01-30T10:27:39;9.10;99.90
21403;DHT22;10862;51.886;17.078;2024-01-30T10:30:05;8.60;99.90
21403;DHT22;10862;51.886;17.078;2024-01-30T10:32:31;8.50;99.90
21403;DHT22;10862;51.886;17.078;2024-01-30T10:34:56;8.60;99.90
21403;DHT22;10862;51.886;17.078;2024-01-30T10:37:25;8.40;99.90
21403;DHT22;10862;51.886;17.078;2024-01-30T10:39:53;8.30;99.90
21403;DHT22;10862;51.886;17.078;2024-01-30T10:42:25;8.00;99.90
21403;DHT22;10862;51.886;17.078;2024-01-30T10:45:07;8.20;99.90
21403;DHT22;10862;51.886;17.078;2024-01-30T10:47:40;8.50;99.90
21403;DHT22;10862;51.886;17.078;2024-01-30T10:50:08;8.60;99.90
21403;DHT22;10862;51.886;17.078;2024-01-30T10:52:34;8.60;99.90
21403;DHT22;10862;51.886;17.078;2024-01-30T10:55:00;8.40;99.90
21403;DHT22;10862;51.886;17.078;2024-01-30T10:57:27;8.60;99.90
21403;DHT22;10862;51.886;17.078;2024-01-30T10:59:55;8.50;99.90
21403;DHT22;10862;51.886;17.078;2024-01-30T11:02:22;8.40;99.90
21403;DHT22;10862;51.886;17.078;2024-01-30T11:04:49;8.40;99.90
21403;DHT22;10862;51.886;17.078;2024-01-30T11:07:19;8.40;99.90
21403;DHT22;10862;51.886;17.078;2024-01-30T11:10:02;8.20;99.90
21403;DHT22;10862;51.886;17.078;2024-01-30T11:12:30;8.10;99.90
21403;DHT22;10862;51.886;17.078;2024-01-30T11:15:10;8.20;99.90
21403;DHT22;10862;51.886;17.078;2024-01-30T11:20:16;8.70;99.90
21403;DHT22;10862;51.886;17.078;2024-01-30T11:22:44;8.60;99.90
21403;DHT22;10862;51.886;17.078;2024-01-30T11:25:14;8.60;99.90
21403;DHT22;10862;51.886;17.078;2024-01-30T11:27:41;8.50;99.90
21403;DHT22;10862;51.886;17.078;2024-01-30T11:30:07;8.70;99.90
21403;DHT22;10862;51.886;17.078;2024-01-30T11:32:33;8.70;99.90
21403;DHT22;10862;51.886;17.078;2024-01-30T11:34:59;8.70;99.90
21403;DHT22;10862;51.886;17.078;2024-01-30T11:37:28;8.70;99.90
21403;DHT22;10862;51.886;17.078;2024-01-30T11:39:54;8.70;99.90
21403;DHT22;10862;51.886;17.078;2024-01-30T11:42:23;8.60;99.90
21403;DHT22;10862;51.886;17.078;2024-01-30T11:44:50;8.70;99.90
21403;DHT22;10862;51.886;17.078;2024-01-30T11:47:16;8.80;99.90
21403;DHT22;10862;51.886;17.078;2024-01-30T11:49:43;8.70;99.90
21403;DHT22;10862;51.886;17.078;2024-01-30T11:52:09;8.50;1.00
21403;DHT22;10862;51.886;17.078;2024-01-30T11:54:35;8.60;1.00
21403;DHT22;10862;51.886;17.078;2024-01-30T11:57:01;8.60;1.00
21403;DHT22;10862;51.886;17.078;2024-01-30T11:59:26;8.50;1.00
21403;DHT22;10862;51.886;17.078;2024-01-30T12:01:52;8.70;1.00
21403;DHT22;10862;51.886;17.078;2024-01-30T12:04:18;8.90;1.00
21403;DHT22;10862;51.886;17.078;2024-01-30T12:06:44;9.10;1.00
21403;DHT22;10862;51.886;17.078;2024-01-30T12:09:09;9.10;99.90
21403;DHT22;10862;51.886;17.078;2024-01-30T12:11:47;9.00;1.00
21403;DHT22;10862;51.886;17.078;2024-01-30T12:14:14;9.00;1.00
21403;DHT22;10862;51.886;17.078;2024-01-30T12:16:40;9.40;99.90
21403;DHT22;10862;51.886;17.078;2024-01-30T12:19:07;9.30;99.90
21403;DHT22;10862;51.886;17.078;2024-01-30T12:21:34;9.10;99.90
21403;DHT22;10862;51.886;17.078;2024-01-30T12:24:00;9.20;99.90
21403;DHT22;10862;51.886;17.078;2024-01-30T12:26:26;9.20;99.90
21403;DHT22;10862;51.886;17.078;2024-01-30T12:28:55;9.20;99.90
21403;DHT22;10862;51.886;17.078;2024-01-30T12:31:28;9.50;99.90
21403;DHT22;10862;51.886;17.078;2024-01-30T12:33:54;9.50;99.90
21403;DHT22;10862;51.886;17.078;2024-01-30T12:36:21;9.60;99.90
21403;DHT22;10862;51.886;17.078;2024-01-30T12:38:47;9.50;99.90
21403;DHT22;10862;51.886;17.078;2024-01-30T12:41:13;9.40;99.90
21403;DHT22;10862;51.886;17.078;2024-01-30T12:43:38;9.50;99.90
21403;DHT22;10862;51.886;17.078;2024-01-30T12:46:04;9.60;99.90
21403;DHT22;10862;51.886;17.078;2024-01-30T12:48:31;9.60;99.90
21403;DHT22;10862;51.886;17.078;2024-01-30T12:50:56;9.50;99.90
21403;DHT22;10862;51.886;17.078;2024-01-30T12:53:22;9.70;99.90
21403;DHT22;10862;51.886;17.078;2024-01-30T12:55:48;9.70;99.90
21403;DHT22;10862;51.886;17.078;2024-01-30T12:58:15;9.50;99.90
21403;DHT22;10862;51.886;17.078;2024-01-30T13:00:41;9.50;99.90
21403;DHT22;10862;51.886;17.078;2024-01-30T13:03:09;9.70;99.90
21403;DHT22;10862;51.886;17.078;2024-01-30T13:05:35;9.50;99.90
21403;DHT22;10862;51.886;17.078;2024-01-30T13:08:01;9.50;99.90
21403;DHT22;10862;51.886;17.078;2024-01-30T13:10:26;9.30;99.90
21403;DHT22;10862;51.886;17.078;2024-01-30T13:12:52;9.40;99.90
21403;DHT22;10862;51.886;17.078;2024-01-30T13:15:18;9.30;99.90
21403;DHT22;10862;51.886;17.078;2024-01-30T13:17:44;9.50;99.90
21403;DHT22;10862;51.886;17.078;2024-01-30T13:20:12;9.60;99.90
21403;DHT22;10862;51.886;17.078;2024-01-30T13:22:39;9.50;99.90
21403;DHT22;10862;51.886;17.078;2024-01-30T13:25:05;9.50;99.90
21403;DHT22;10862;51.886;17.078;2024-01-30T13:27:32;9.40;99.90
21403;DHT22;10862;51.886;17.078;2024-01-30T13:29:57;9.40;99.90
21403;DHT22;10862;51.886;17.078;2024-01-30T13:32:23;9.10;99.90
21403;DHT22;10862;51.886;17.078;2024-01-30T13:34:49;9.10;99.90
21403;DHT22;10862;51.886;17.078;2024-01-30T13:37:14;8.90;99.90
21403;DHT22;10862;51.886;17.078;2024-01-30T13:39:40;9.00;1.00
21403;DHT22;10862;51.886;17.078;2024-01-30T13:42:05;9.00;1.00
21403;DHT22;10862;51.886;17.078;2024-01-30T13:44:31;9.00;1.00
21403;DHT22;10862;51.886;17.078;2024-01-30T13:46:57;9.00;1.00
21403;DHT22;10862;51.886;17.078;2024-01-30T13:49:22;8.90;1.00
21403;DHT22;10862;51.886;17.078;2024-01-30T13:51:48;9.00;1.00
21403;DHT22;10862;51.886;17.078;2024-01-30T13:54:14;8.90;1.00
21403;DHT22;10862;51.886;17.078;2024-01-30T13:56:44;9.00;1.00
21403;DHT22;10862;51.886;17.078;2024-01-30T13:59:09;9.00;1.00
21403;DHT22;10862;51.886;17.078;2024-01-30T14:01:35;9.10;1.00
21403;DHT22;10862;51.886;17.078;2024-01-30T14:04:00;9.10;1.00
21403;DHT22;10862;51.886;17.078;2024-01-30T14:06:26;9.20;1.00
21403;DHT22;10862;51.886;17.078;2024-01-30T14:08:52;9.30;1.00
21403;DHT22;10862;51.886;17.078;2024-01-30T14:11:17;9.30;1.00
21403;DHT22;10862;51.886;17.078;2024-01-30T14:13:43;9.10;1.00
21403;DHT22;10862;51.886;17.078;2024-01-30T14:16:09;9.10;1.00
21403;DHT22;10862;51.886;17.078;2024-01-30T14:18:35;9.10;1.00
21403;DHT22;10862;51.886;17.078;2024-01-30T14:21:00;9.00;1.00
21403;DHT22;10862;51.886;17.078;2024-01-30T14:23:26;9.00;1.00
21403;DHT22;10862;51.886;17.078;2024-01-30T14:25:52;9.00;1.00
21403;DHT22;10862;51.886;17.078;2024-01-30T14:28:18;8.90;1.00
21403;DHT22;10862;51.886;17.078;2024-01-30T14:30:43;9.00;1.00
21403;DHT22;10862;51.886;17.078;2024-01-30T14:33:09;8.90;1.00
21403;DHT22;10862;51.886;17.078;2024-01-30T14:35:35;9.00;1.00
21403;DHT22;10862;51.886;17.078;2024-01-30T14:38:00;9.00;1.00
21403;DHT22;10862;51.886;17.078;2024-01-30T14:40:27;8.80;1.00
21403;DHT22;10862;51.886;17.078;2024-01-30T14:42:52;8.90;1.00
21403;DHT22;10862;51.886;17.078;2024-01-30T14:45:18;9.10;1.00
21403;DHT22;10862;51.886;17.078;2024-01-30T14:47:44;9.10;1.00
21403;DHT22;10862;51.886;17.078;2024-01-30T14:50:10;9.10;1.00
21403;DHT22;10862;51.886;17.078;2024-01-30T14:52:36;9.50;1.00
21403;DHT22;10862;51.886;17.078;2024-01-30T14:55:02;9.60;1.00
21403;DHT22;10862;51.886;17.078;2024-01-30T14:57:28;9.10;1.00
21403;DHT22;10862;51.886;17.078;2024-01-30T14:59:54;9.00;1.00
21403;DHT22;10862;51.886;17.078;2024-01-30T15:02:20;8.70;1.00
21403;DHT22;10862;51.886;17.078;2024-01-30T15:04:45;8.40;1.00
21403;DHT22;10862;51.886;17.078;2024-01-30T15:07:11;8.50;1.00
21403;DHT22;10862;51.886;17.078;2024-01-30T15:09:36;8.40;1.00
21403;DHT22;10862;51.886;17.078;2024-01-30T15:12:02;8.30;1.00
21403;DHT22;10862;51.886;17.078;2024-01-30T15:14:28;8.00;1.00
21403;DHT22;10862;51.886;17.078;2024-01-30T15:16:53;7.90;50.30
21403;DHT22;10862;51.886;17.078;2024-01-30T15:19:19;7.70;99.90
21403;DHT22;10862;51.886;17.078;2024-01-30T15:21:45;7.40;99.90
21403;DHT22;10862;51.886;17.078;2024-01-30T15:24:10;7.50;99.90
21403;DHT22;10862;51.886;17.078;2024-01-30T15:26:40;7.50;99.90
21403;DHT22;10862;51.886;17.078;2024-01-30T15:29:06;7.60;99.90
21403;DHT22;10862;51.886;17.078;2024-01-30T15:31:31;7.50;99.90
21403;DHT22;10862;51.886;17.078;2024-01-30T15:33:57;7.50;99.90